createdAt,value
2023-03-12T00:00:08.088Z,62.79
2023-03-12T00:00:18.340Z,62.79
2023-03-12T00:00:29.183Z,62.79
2023-03-12T00:00:38.779Z,62.79
2023-03-12T00:00:49.048Z,62.89
2023-03-12T00:00:59.303Z,62.89
2023-03-12T00:01:09.502Z,62.89
2023-03-12T00:01:19.747Z,62.89
2023-03-12T00:01:30.655Z,62.89
2023-03-12T00:01:40.340Z,62.89
2023-03-12T00:01:50.601Z,62.89
2023-03-12T00:02:00.859Z,62.89
2023-03-12T00:02:11.161Z,62.89
2023-03-12T00:02:22.374Z,62.89
2023-03-12T00:02:31.840Z,62.89
2023-03-12T00:02:42.269Z,62.89
2023-03-12T00:03:07.211Z,62.89
2023-03-12T00:03:08.693Z,62.99
2023-03-12T00:03:18.781Z,62.99
2023-03-12T00:03:28.499Z,63.10
2023-03-12T00:03:39.796Z,63.10
2023-03-12T00:03:49.070Z,63.10
2023-03-12T00:03:59.342Z,62.99
2023-03-12T00:04:09.669Z,62.99
2023-03-12T00:04:19.906Z,62.99
2023-03-12T00:04:30.139Z,62.99
2023-03-12T00:04:41.185Z,62.99
2023-03-12T00:04:53.706Z,62.99
2023-03-12T00:05:01.137Z,62.99
2023-03-12T00:05:12.184Z,63.10
2023-03-12T00:05:21.776Z,63.10
2023-03-12T00:05:32.026Z,63.10
2023-03-12T00:05:42.286Z,63.20
2023-03-12T00:05:53.182Z,63.20
2023-03-12T00:06:10.610Z,63.20
2023-03-12T00:06:14.718Z,63.20
2023-03-12T00:06:26.187Z,63.20
2023-03-12T00:06:54.840Z,63.20
2023-03-12T00:06:56.182Z,63.20
2023-03-12T00:07:05.782Z,63.20
2023-03-12T00:07:16.016Z,63.10
2023-03-12T00:07:26.276Z,63.10
2023-03-12T00:07:36.749Z,63.10
2023-03-12T00:07:46.742Z,63.10
2023-03-12T00:07:56.978Z,63.10
2023-03-12T00:08:07.232Z,63.10
2023-03-12T00:08:17.460Z,63.10
2023-03-12T00:08:27.698Z,63.10
2023-03-12T00:08:44.710Z,63.10
2023-03-12T00:08:48.263Z,63.20
2023-03-12T00:09:05.194Z,63.20
2023-03-12T00:09:09.732Z,63.20
2023-03-12T00:09:19.116Z,63.20
2023-03-12T00:09:29.411Z,63.31
2023-03-12T00:09:39.664Z,63.20
2023-03-12T00:09:49.892Z,63.20
2023-03-12T00:10:00.185Z,63.20
2023-03-12T00:10:10.410Z,63.20
2023-03-12T00:10:21.190Z,63.20
2023-03-12T00:10:31.003Z,63.10
2023-03-12T00:10:41.252Z,63.10
2023-03-12T00:10:52.194Z,63.20
2023-03-12T00:11:01.822Z,63.20
2023-03-12T00:11:12.023Z,63.20
2023-03-12T00:11:22.269Z,63.20
2023-03-12T00:11:32.521Z,63.20
2023-03-12T00:11:42.783Z,63.20
2023-03-12T00:11:55.690Z,63.20
2023-03-12T00:12:04.189Z,63.20
2023-03-12T00:12:20.209Z,63.20
2023-03-12T00:12:23.972Z,63.20
2023-03-12T00:12:35.179Z,63.31
2023-03-12T00:12:44.749Z,63.31
2023-03-12T00:12:54.782Z,63.31
2023-03-12T00:13:05.032Z,63.31
2023-03-12T00:13:18.194Z,63.31
2023-03-12T00:13:28.240Z,63.31
2023-03-12T00:13:35.899Z,63.31
2023-03-12T00:13:46.150Z,63.31
2023-03-12T00:13:56.392Z,63.31
2023-03-12T00:14:07.197Z,63.31
2023-03-12T00:14:17.000Z,63.20
2023-03-12T00:14:27.241Z,63.20
2023-03-12T00:14:38.218Z,63.20
2023-03-12T00:14:47.800Z,63.20
2023-03-12T00:14:58.059Z,63.20
2023-03-12T00:15:08.273Z,63.20
2023-03-12T00:15:18.540Z,63.20
2023-03-12T00:15:28.775Z,63.31
2023-03-12T00:15:41.763Z,63.31
2023-03-12T00:15:49.443Z,63.31
2023-03-12T00:16:00.321Z,63.31
2023-03-12T00:16:10.054Z,63.31
2023-03-12T00:16:20.250Z,63.31
2023-03-12T00:16:33.188Z,63.42
2023-03-12T00:16:43.712Z,63.42
2023-03-12T00:17:14.705Z,63.52
2023-03-12T00:17:15.238Z,63.62
2023-03-12T00:17:40.199Z,63.62
2023-03-12T00:17:40.790Z,63.73
2023-03-12T00:17:51.692Z,63.73
2023-03-12T00:18:02.187Z,63.73
2023-03-12T00:18:18.208Z,63.62
2023-03-12T00:18:22.695Z,63.73
2023-03-12T00:18:33.188Z,63.62
2023-03-12T00:18:42.564Z,63.62
2023-03-12T00:18:55.704Z,63.62
2023-03-12T00:19:09.688Z,63.62
2023-03-12T00:19:13.509Z,63.62
2023-03-12T00:19:24.692Z,63.52
2023-03-12T00:19:34.692Z,63.52
2023-03-12T00:19:45.194Z,63.52
2023-03-12T00:19:57.190Z,63.52
2023-03-12T00:20:04.840Z,63.52
2023-03-12T00:20:15.076Z,63.52
2023-03-12T00:20:25.311Z,63.52
2023-03-12T00:20:36.190Z,63.52
2023-03-12T00:20:46.683Z,63.62
2023-03-12T00:20:56.062Z,63.62
2023-03-12T00:21:09.203Z,63.62
2023-03-12T00:21:16.638Z,63.62
2023-03-12T00:21:26.876Z,63.73
2023-03-12T00:21:37.105Z,63.73
2023-03-12T00:21:48.189Z,63.73
2023-03-12T00:21:57.566Z,63.73
2023-03-12T00:22:10.705Z,63.73
2023-03-12T00:22:18.144Z,63.62
2023-03-12T00:22:28.406Z,63.62
2023-03-12T00:22:38.646Z,63.62
2023-03-12T00:22:48.925Z,63.62
2023-03-12T00:22:59.163Z,63.62
2023-03-12T00:23:16.185Z,63.62
2023-03-12T00:23:19.749Z,63.62
2023-03-12T00:23:29.985Z,63.62
2023-03-12T00:23:40.241Z,63.62
2023-03-12T00:23:57.192Z,63.62
2023-03-12T00:24:00.760Z,63.62
2023-03-12T00:24:10.998Z,63.62
2023-03-12T00:24:21.268Z,63.62
2023-03-12T00:24:31.526Z,63.62
2023-03-12T00:24:41.764Z,63.62
2023-03-12T00:24:54.706Z,63.62
2023-03-12T00:25:09.198Z,63.62
2023-03-12T00:25:19.691Z,63.73
2023-03-12T00:25:23.040Z,63.73
2023-03-12T00:25:36.200Z,63.73
2023-03-12T00:25:46.653Z,63.73
2023-03-12T00:25:56.689Z,63.83
2023-03-12T00:26:07.205Z,63.83
2023-03-12T00:26:14.629Z,63.83
2023-03-12T00:26:27.695Z,63.83
2023-03-12T00:26:41.698Z,63.93
2023-03-12T00:26:45.478Z,63.93
2023-03-12T00:26:55.740Z,63.93
2023-03-12T00:27:08.694Z,63.93
2023-03-12T00:27:17.183Z,63.93
2023-03-12T00:27:26.562Z,63.83
2023-03-12T00:27:37.710Z,63.83
2023-03-12T00:27:47.083Z,63.83
2023-03-12T00:27:57.337Z,63.73
2023-03-12T00:28:07.583Z,63.73
2023-03-12T00:28:17.813Z,63.73
2023-03-12T00:28:30.699Z,63.73
2023-03-12T00:28:45.183Z,63.73
2023-03-12T00:28:48.747Z,63.73
2023-03-12T00:28:59.726Z,63.73
2023-03-12T00:29:10.195Z,63.73
2023-03-12T00:29:19.577Z,63.73
2023-03-12T00:29:29.813Z,63.73
2023-03-12T00:29:40.069Z,63.73
2023-03-12T00:29:50.310Z,63.73
2023-03-12T00:30:00.542Z,63.73
2023-03-12T00:30:10.792Z,63.73
2023-03-12T00:30:21.683Z,63.73
2023-03-12T00:30:31.274Z,63.83
2023-03-12T00:30:41.561Z,63.83
2023-03-12T00:30:51.780Z,63.83
2023-03-12T00:31:02.144Z,63.83
2023-03-12T00:31:12.426Z,63.83
2023-03-12T00:31:23.242Z,63.83
2023-03-12T00:31:33.200Z,63.83
2023-03-12T00:31:43.464Z,63.83
2023-03-12T00:31:56.192Z,63.83
2023-03-12T00:32:04.224Z,63.83
2023-03-12T00:32:14.530Z,63.83
2023-03-12T00:32:25.698Z,63.83
2023-03-12T00:32:35.114Z,63.83
2023-03-12T00:32:45.451Z,63.83
2023-03-12T00:32:55.756Z,63.83
2023-03-12T00:33:06.687Z,63.83
2023-03-12T00:33:16.276Z,63.83
2023-03-12T00:33:26.544Z,63.83
2023-03-12T00:33:36.774Z,63.83
2023-03-12T00:33:47.035Z,63.83
2023-03-12T00:33:57.246Z,63.83
2023-03-12T00:34:08.190Z,63.93
2023-03-12T00:34:17.775Z,63.93
2023-03-12T00:34:28.015Z,63.93
2023-03-12T00:34:38.275Z,63.93
2023-03-12T00:34:48.542Z,63.93
2023-03-12T00:34:58.847Z,63.93
2023-03-12T00:35:09.093Z,63.93
2023-03-12T00:35:22.192Z,63.93
2023-03-12T00:35:29.652Z,63.93
2023-03-12T00:35:42.726Z,63.93
2023-03-12T00:35:50.171Z,63.93
2023-03-12T00:36:00.435Z,63.93
2023-03-12T00:36:13.198Z,63.93
2023-03-12T00:36:23.700Z,63.93
2023-03-12T00:36:32.193Z,63.93
2023-03-12T00:36:42.698Z,63.93
2023-03-12T00:36:58.686Z,64.04
2023-03-12T00:37:02.467Z,64.04
2023-03-12T00:37:12.706Z,64.04
2023-03-12T00:37:22.954Z,63.93
2023-03-12T00:37:35.687Z,63.93
2023-03-12T00:37:44.185Z,63.93
2023-03-12T00:37:54.206Z,63.93
2023-03-12T00:38:04.033Z,63.93
2023-03-12T00:38:17.185Z,63.93
2023-03-12T00:38:27.187Z,63.93
2023-03-12T00:38:34.854Z,63.83
2023-03-12T00:38:45.091Z,63.83
2023-03-12T00:38:55.331Z,63.83
2023-03-12T00:39:05.568Z,63.83
2023-03-12T00:39:15.803Z,63.83
2023-03-12T00:39:26.686Z,63.83
2023-03-12T00:39:36.279Z,63.83
2023-03-12T00:39:47.184Z,63.83
2023-03-12T00:39:56.779Z,63.83
2023-03-12T00:40:07.017Z,63.83
2023-03-12T00:40:17.250Z,63.83
2023-03-12T00:40:27.489Z,63.83
2023-03-12T00:40:37.723Z,63.83
2023-03-12T00:40:47.965Z,63.83
2023-03-12T00:40:58.192Z,63.83
2023-03-12T00:41:09.191Z,63.83
2023-03-12T00:41:19.700Z,63.73
2023-03-12T00:41:29.068Z,63.73
2023-03-12T00:41:42.199Z,63.83
2023-03-12T00:41:49.635Z,63.83
2023-03-12T00:42:00.690Z,63.83
2023-03-12T00:42:10.289Z,63.93
2023-03-12T00:42:20.517Z,63.93
2023-03-12T00:42:31.699Z,63.93
2023-03-12T00:42:41.065Z,64.04
2023-03-12T00:42:51.303Z,64.04
2023-03-12T00:43:01.575Z,64.04
2023-03-12T00:43:11.813Z,64.04
2023-03-12T00:43:22.045Z,64.04
2023-03-12T00:43:33.234Z,64.04
2023-03-12T00:43:42.583Z,64.04
2023-03-12T00:43:59.698Z,64.04
2023-03-12T00:44:09.696Z,64.04
2023-03-12T00:44:20.184Z,64.14
2023-03-12T00:44:23.536Z,64.14
2023-03-12T00:44:34.689Z,64.14
2023-03-12T00:44:44.071Z,64.14
2023-03-12T00:44:54.301Z,64.14
2023-03-12T00:45:04.539Z,64.14
2023-03-12T00:45:14.777Z,64.14
2023-03-12T00:45:25.682Z,64.14
2023-03-12T00:45:35.277Z,64.14
2023-03-12T00:45:45.526Z,64.14
2023-03-12T00:45:56.687Z,64.14
2023-03-12T00:46:06.111Z,64.14
2023-03-12T00:46:16.366Z,64.14
2023-03-12T00:46:27.211Z,64.04
2023-03-12T00:46:37.059Z,64.04
2023-03-12T00:46:47.351Z,64.14
2023-03-12T00:46:58.229Z,64.14
2023-03-12T00:47:14.694Z,64.14
2023-03-12T00:47:18.054Z,64.14
2023-03-12T00:47:28.278Z,64.14
2023-03-12T00:47:53.198Z,64.14
2023-03-12T00:47:54.205Z,64.14
2023-03-12T00:48:04.012Z,64.14
2023-03-12T00:48:14.244Z,64.14
2023-03-12T00:48:31.210Z,64.14
2023-03-12T00:48:37.686Z,64.14
2023-03-12T00:48:45.131Z,64.14
2023-03-12T00:48:58.183Z,64.14
2023-03-12T00:49:05.633Z,64.14
2023-03-12T00:49:15.867Z,64.14
2023-03-12T00:49:26.102Z,64.14
2023-03-12T00:49:43.227Z,64.14
2023-03-12T00:49:47.688Z,64.14
2023-03-12T00:49:57.074Z,64.14
2023-03-12T00:50:22.186Z,64.14
2023-03-12T00:50:22.738Z,64.14
2023-03-12T00:50:33.692Z,64.14
2023-03-12T00:50:43.282Z,64.25
2023-03-12T00:50:53.514Z,64.14
2023-03-12T00:51:04.700Z,64.25
2023-03-12T00:51:14.089Z,64.25
2023-03-12T00:51:25.190Z,64.25
2023-03-12T00:51:35.212Z,64.25
2023-03-12T00:51:45.695Z,64.25
2023-03-12T00:51:55.061Z,64.25
2023-03-12T00:52:20.184Z,64.25
2023-03-12T00:52:20.731Z,64.25
2023-03-12T00:52:30.973Z,64.25
2023-03-12T00:52:41.206Z,64.25
2023-03-12T00:52:51.446Z,64.25
2023-03-12T00:53:01.790Z,64.25
2023-03-12T00:53:12.011Z,64.36
2023-03-12T00:53:22.253Z,64.36
2023-03-12T00:53:32.502Z,64.36
2023-03-12T00:53:49.686Z,64.25
2023-03-12T00:53:53.029Z,64.25
2023-03-12T00:54:03.275Z,64.25
2023-03-12T00:54:13.533Z,64.25
2023-03-12T00:54:23.765Z,64.25
2023-03-12T00:54:36.688Z,64.36
2023-03-12T00:54:44.338Z,64.36
2023-03-12T00:54:57.184Z,64.36
2023-03-12T00:55:05.689Z,64.36
2023-03-12T00:55:15.129Z,64.36
2023-03-12T00:55:32.188Z,64.36
2023-03-12T00:55:50.682Z,64.46
2023-03-12T00:55:51.232Z,64.56
2023-03-12T00:56:01.472Z,64.56
2023-03-12T00:56:11.724Z,64.56
2023-03-12T00:56:22.682Z,64.56
2023-03-12T00:56:32.279Z,64.56
2023-03-12T00:56:45.204Z,64.56
2023-03-12T00:56:55.684Z,64.46
2023-03-12T00:57:17.688Z,64.46
2023-03-12T00:57:19.186Z,64.46
2023-03-12T00:57:31.188Z,64.46
2023-03-12T00:57:39.687Z,64.46
2023-03-12T00:57:49.069Z,64.46
2023-03-12T00:57:59.309Z,64.46
2023-03-12T00:58:09.706Z,64.46
2023-03-12T00:58:19.940Z,64.46
2023-03-12T00:58:30.176Z,64.46
2023-03-12T00:58:40.416Z,64.46
2023-03-12T00:58:50.658Z,64.46
2023-03-12T00:59:00.920Z,64.46
2023-03-12T00:59:11.133Z,64.46
2023-03-12T00:59:22.186Z,64.46
2023-03-12T00:59:31.795Z,64.46
2023-03-12T00:59:42.031Z,64.46
2023-03-12T00:59:52.262Z,64.46
2023-03-12T01:00:02.497Z,64.56
2023-03-12T01:00:12.739Z,64.56
2023-03-12T01:00:22.978Z,64.56
2023-03-12T01:00:33.236Z,64.56
2023-03-12T01:00:43.559Z,64.56
2023-03-12T01:00:54.724Z,64.56
2023-03-12T01:01:04.109Z,64.56
2023-03-12T01:01:14.441Z,64.56
2023-03-12T01:01:24.679Z,64.46
2023-03-12T01:01:34.913Z,64.56
2023-03-12T01:01:45.154Z,64.56
2023-03-12T01:01:55.392Z,64.56
2023-03-12T01:02:06.188Z,64.56
2023-03-12T01:02:16.703Z,64.56
2023-03-12T01:02:26.284Z,64.56
2023-03-12T01:02:36.518Z,64.56
2023-03-12T01:02:47.688Z,64.56
2023-03-12T01:02:57.061Z,64.56
2023-03-12T01:03:07.732Z,64.67
2023-03-12T01:03:18.190Z,64.67
2023-03-12T01:03:28.707Z,64.67
2023-03-12T01:03:38.285Z,64.67
2023-03-12T01:03:51.267Z,64.67
2023-03-12T01:03:59.736Z,64.67
2023-03-12T01:04:09.147Z,64.67
2023-03-12T01:04:19.434Z,64.67
2023-03-12T01:04:30.287Z,64.67
2023-03-12T01:04:42.730Z,64.67
2023-03-12T01:04:50.691Z,64.77
2023-03-12T01:05:00.499Z,64.77
2023-03-12T01:05:10.737Z,64.77
2023-03-12T01:05:20.969Z,64.77
2023-03-12T01:05:32.506Z,64.77
2023-03-12T01:05:42.224Z,64.67
2023-03-12T01:05:58.709Z,64.77
2023-03-12T01:06:02.051Z,64.77
2023-03-12T01:06:12.279Z,64.77
2023-03-12T01:06:23.188Z,64.77
2023-03-12T01:06:32.791Z,64.87
2023-03-12T01:06:43.023Z,64.87
2023-03-12T01:06:53.262Z,64.87
2023-03-12T01:07:03.499Z,64.77
2023-03-12T01:07:16.693Z,64.77
2023-03-12T01:07:24.131Z,64.77
2023-03-12T01:07:34.374Z,64.77
2023-03-12T01:07:44.639Z,64.67
2023-03-12T01:07:55.689Z,64.67
2023-03-12T01:08:05.288Z,64.67
2023-03-12T01:08:15.708Z,64.56
2023-03-12T01:08:25.946Z,64.56
2023-03-12T01:08:36.187Z,64.56
2023-03-12T01:08:46.433Z,64.56
2023-03-12T01:08:56.662Z,64.56
2023-03-12T01:09:06.902Z,64.56
2023-03-12T01:09:17.139Z,64.67
2023-03-12T01:09:27.373Z,64.67
2023-03-12T01:09:37.640Z,64.67
2023-03-12T01:09:47.893Z,64.67
2023-03-12T01:09:58.114Z,64.67
2023-03-12T01:10:08.365Z,64.77
2023-03-12T01:10:18.596Z,64.77
2023-03-12T01:10:28.838Z,64.77
2023-03-12T01:10:39.085Z,64.74
2023-03-12T01:10:49.325Z,64.77
2023-03-12T01:10:59.577Z,64.77
2023-03-12T01:11:33.698Z,64.77
2023-03-12T01:11:34.258Z,64.87
2023-03-12T01:11:45.194Z,64.87
2023-03-12T01:11:57.719Z,64.87
2023-03-12T01:12:05.692Z,64.87
2023-03-12T01:12:18.208Z,64.77
2023-03-12T01:12:26.690Z,64.77
2023-03-12T01:12:36.287Z,64.77
2023-03-12T01:12:46.521Z,64.87
2023-03-12T01:12:56.759Z,64.87
2023-03-12T01:13:07.024Z,64.87
2023-03-12T01:13:17.287Z,64.87
2023-03-12T01:13:27.509Z,64.98
2023-03-12T01:13:40.697Z,64.98
2023-03-12T01:14:46.565Z,65.09
2023-03-12T01:14:56.789Z,65.09
2023-03-12T01:15:07.024Z,65.09
2023-03-12T01:15:17.267Z,65.09
2023-03-12T01:15:27.499Z,65.09
2023-03-12T01:15:37.735Z,64.98
2023-03-12T01:15:47.968Z,64.98
2023-03-12T01:15:58.276Z,64.98
2023-03-12T01:16:08.617Z,64.98
2023-03-12T01:16:18.945Z,64.98
2023-03-12T01:16:29.201Z,64.98
2023-03-12T01:16:39.446Z,64.98
2023-03-12T01:16:52.313Z,64.98
2023-03-12T01:16:59.945Z,64.98
2023-03-12T01:17:10.168Z,64.98
2023-03-12T01:17:20.387Z,64.98
2023-03-12T01:17:30.628Z,64.98
2023-03-12T01:17:40.867Z,64.98
2023-03-12T01:17:51.099Z,64.98
2023-03-12T01:18:01.338Z,64.98
2023-03-12T01:18:11.593Z,65.09
2023-03-12T01:18:21.836Z,65.09
2023-03-12T01:18:32.088Z,65.09
2023-03-12T01:18:42.321Z,65.09
2023-03-12T01:18:52.531Z,65.09
2023-03-12T01:19:02.769Z,65.09
2023-03-12T01:19:13.007Z,65.09
2023-03-12T01:19:23.243Z,65.19
2023-03-12T01:19:33.484Z,65.19
2023-03-12T01:19:43.729Z,65.19
2023-03-12T01:19:53.964Z,65.19
2023-03-12T01:20:04.261Z,65.19
2023-03-12T01:20:14.446Z,65.16
2023-03-12T01:20:24.689Z,65.19
2023-03-12T01:20:34.983Z,65.19
2023-03-12T01:20:45.220Z,65.19
2023-03-12T01:20:55.461Z,65.19
2023-03-12T01:21:05.696Z,65.19
2023-03-12T01:21:15.933Z,65.19
2023-03-12T01:21:26.168Z,65.19
2023-03-12T01:21:36.408Z,65.09
2023-03-12T01:21:46.638Z,65.09
2023-03-12T01:21:56.877Z,65.09
2023-03-12T01:22:07.130Z,65.09
2023-03-12T01:22:17.369Z,65.09
2023-03-12T01:22:27.608Z,65.09
2023-03-12T01:22:37.842Z,65.09
2023-03-12T01:22:48.076Z,65.06
2023-03-12T01:22:58.313Z,65.19
2023-03-12T01:23:08.560Z,65.19
2023-03-12T01:23:18.796Z,65.30
2023-03-12T01:23:29.022Z,65.30
2023-03-12T01:23:39.260Z,65.30
2023-03-12T01:23:49.498Z,65.30
2023-03-12T01:23:59.753Z,65.19
2023-03-12T01:24:10.096Z,65.19
2023-03-12T01:24:20.336Z,65.19
2023-03-12T01:24:30.569Z,65.19
2023-03-12T01:24:40.806Z,65.19
2023-03-12T01:24:51.049Z,65.19
2023-03-12T01:25:01.277Z,65.19
2023-03-12T01:25:11.519Z,65.19
2023-03-12T01:25:21.753Z,65.19
2023-03-12T01:25:31.991Z,65.19
2023-03-12T01:25:42.232Z,65.30
2023-03-12T01:25:52.471Z,65.30
2023-03-12T01:26:02.711Z,65.26
2023-03-12T01:26:12.952Z,65.26
2023-03-12T01:26:23.180Z,65.30
2023-03-12T01:26:33.418Z,65.19
2023-03-12T01:26:43.651Z,65.19
2023-03-12T01:26:53.889Z,65.19
2023-03-12T01:27:04.157Z,65.16
2023-03-12T01:27:14.469Z,65.19
2023-03-12T01:27:24.667Z,65.19
2023-03-12T01:27:34.900Z,65.19
2023-03-12T01:27:47.350Z,65.19
2023-03-12T01:27:55.432Z,65.19
2023-03-12T01:28:05.672Z,65.19
2023-03-12T01:28:15.922Z,65.19
2023-03-12T01:28:26.167Z,65.19
2023-03-12T01:28:36.403Z,65.16
2023-03-12T01:28:46.639Z,65.16
2023-03-12T01:28:56.875Z,65.30
2023-03-12T01:29:07.114Z,65.26
2023-03-12T01:29:17.354Z,65.30
2023-03-12T01:29:27.596Z,65.30
2023-03-12T01:29:37.822Z,65.19
2023-03-12T01:29:48.060Z,65.16
2023-03-12T01:29:58.298Z,65.19
2023-03-12T01:30:08.573Z,65.19
2023-03-12T01:30:18.781Z,65.19
2023-03-12T01:30:29.014Z,65.30
2023-03-12T01:30:39.251Z,65.30
2023-03-12T01:30:49.486Z,65.30
2023-03-12T01:30:59.724Z,65.26
2023-03-12T01:31:10.013Z,65.26
2023-03-12T01:31:20.314Z,65.30
2023-03-12T01:31:30.595Z,65.26
2023-03-12T01:31:40.864Z,65.30
2023-03-12T01:31:51.248Z,65.26
2023-03-12T01:32:01.452Z,65.26
2023-03-12T01:32:11.691Z,65.16
2023-03-12T01:32:21.937Z,65.16
2023-03-12T01:32:32.239Z,65.16
2023-03-12T01:32:42.473Z,65.19
2023-03-12T01:32:52.844Z,65.16
2023-03-12T01:33:02.897Z,65.19
2023-03-12T01:33:13.132Z,65.19
2023-03-12T01:33:23.401Z,65.16
2023-03-12T01:33:33.622Z,65.16
2023-03-12T01:33:43.859Z,65.16
2023-03-12T01:33:54.118Z,65.16
2023-03-12T01:34:04.378Z,65.16
2023-03-12T01:34:14.583Z,65.19
2023-03-12T01:34:24.811Z,65.16
2023-03-12T01:34:35.050Z,65.16
2023-03-12T01:34:45.289Z,65.16
2023-03-12T01:34:55.531Z,65.16
2023-03-12T01:35:05.775Z,65.26
2023-03-12T01:35:16.079Z,65.26
2023-03-12T01:35:26.514Z,65.30
2023-03-12T01:35:36.902Z,65.37
2023-03-12T01:35:47.254Z,65.40
2023-03-12T01:35:57.624Z,65.37
2023-03-12T01:36:08.022Z,65.37
2023-03-12T01:36:18.125Z,65.40
2023-03-12T01:36:28.426Z,65.37
2023-03-12T01:36:38.658Z,65.37
2023-03-12T01:36:48.895Z,65.37
2023-03-12T01:36:59.130Z,65.40
2023-03-12T01:37:09.373Z,65.37
2023-03-12T01:37:19.607Z,65.37
2023-03-12T01:37:29.865Z,65.47
2023-03-12T01:37:40.096Z,65.37
2023-03-12T01:37:50.333Z,65.47
2023-03-12T01:38:00.578Z,65.37
2023-03-12T01:38:10.803Z,65.40
2023-03-12T01:38:21.109Z,65.40
2023-03-12T01:38:31.300Z,65.37
2023-03-12T01:38:41.536Z,65.40
2023-03-12T01:38:51.773Z,65.40
2023-03-12T01:39:02.017Z,65.37
2023-03-12T01:39:12.244Z,65.37
2023-03-12T01:39:22.483Z,65.37
2023-03-12T01:39:32.717Z,65.37
2023-03-12T01:39:42.960Z,65.47
2023-03-12T01:39:53.198Z,65.47
2023-03-12T01:40:03.428Z,65.47
2023-03-12T01:40:13.679Z,65.47
2023-03-12T01:40:23.907Z,65.47
2023-03-12T01:40:34.145Z,65.47
2023-03-12T01:40:44.383Z,65.47
2023-03-12T01:40:54.621Z,65.47
2023-03-12T01:41:04.858Z,65.47
2023-03-12T01:41:15.096Z,65.47
2023-03-12T01:41:25.347Z,65.47
2023-03-12T01:41:35.591Z,65.47
2023-03-12T01:41:45.826Z,65.37
2023-03-12T01:41:56.055Z,65.40
2023-03-12T01:42:06.297Z,65.37
2023-03-12T01:42:16.544Z,65.37
2023-03-12T01:42:26.767Z,65.37
2023-03-12T01:42:37.004Z,65.37
2023-03-12T01:42:47.262Z,65.37
2023-03-12T01:42:57.534Z,65.37
2023-03-12T01:43:07.729Z,65.37
2023-03-12T01:43:17.991Z,65.40
2023-03-12T01:43:28.235Z,65.37
2023-03-12T01:43:38.479Z,65.37
2023-03-12T01:43:48.705Z,65.40
2023-03-12T01:43:58.949Z,65.37
2023-03-12T01:44:09.189Z,65.37
2023-03-12T01:44:19.421Z,65.37
2023-03-12T01:44:29.663Z,65.47
2023-03-12T01:44:39.908Z,65.47
2023-03-12T01:44:50.159Z,65.58
2023-03-12T01:45:00.406Z,65.58
2023-03-12T01:45:10.624Z,65.61
2023-03-12T01:45:20.866Z,65.68
2023-03-12T01:45:31.154Z,65.68
2023-03-12T01:45:41.402Z,65.68
2023-03-12T01:45:51.651Z,65.58
2023-03-12T01:46:01.920Z,65.58
2023-03-12T01:46:12.320Z,65.58
2023-03-12T01:46:22.593Z,65.58
2023-03-12T01:46:32.849Z,65.47
2023-03-12T01:46:43.095Z,65.47
2023-03-12T01:46:53.298Z,65.58
2023-03-12T01:47:03.538Z,65.47
2023-03-12T01:47:13.769Z,65.58
2023-03-12T01:47:24.003Z,65.58
2023-03-12T01:47:34.239Z,65.58
2023-03-12T01:47:44.476Z,65.58
2023-03-12T01:47:54.715Z,65.58
2023-03-12T01:48:04.953Z,65.58
2023-03-12T01:48:15.187Z,65.58
2023-03-12T01:48:25.444Z,65.58
2023-03-12T01:48:35.679Z,65.58
2023-03-12T01:48:45.917Z,65.58
2023-03-12T01:48:56.167Z,65.58
2023-03-12T01:49:06.417Z,65.47
2023-03-12T01:49:16.641Z,65.47
2023-03-12T01:49:26.914Z,65.47
2023-03-12T01:49:37.121Z,65.47
2023-03-12T01:49:47.360Z,65.47
2023-03-12T01:49:57.598Z,65.47
2023-03-12T01:50:07.835Z,65.47
2023-03-12T01:50:18.078Z,65.47
2023-03-12T01:50:28.308Z,65.47
2023-03-12T01:50:38.556Z,65.47
2023-03-12T01:50:48.785Z,65.37
2023-03-12T01:50:59.027Z,65.37
2023-03-12T01:51:09.266Z,65.37
2023-03-12T01:51:19.498Z,65.37
2023-03-12T01:51:29.733Z,65.37
2023-03-12T01:51:39.970Z,65.37
2023-03-12T01:51:50.212Z,65.37
2023-03-12T01:52:00.440Z,65.37
2023-03-12T01:52:10.681Z,65.37
2023-03-12T01:52:20.923Z,65.37
2023-03-12T01:52:31.152Z,65.37
2023-03-12T01:52:41.400Z,65.37
2023-03-12T01:52:51.631Z,65.37
2023-03-12T01:53:01.863Z,65.37
2023-03-12T01:53:12.101Z,65.37
2023-03-12T01:53:22.348Z,65.37
2023-03-12T01:53:32.588Z,65.37
2023-03-12T01:53:42.824Z,65.37
2023-03-12T01:53:53.062Z,65.37
2023-03-12T01:54:03.301Z,65.37
2023-03-12T01:54:13.536Z,65.37
2023-03-12T01:54:23.784Z,65.37
2023-03-12T01:54:34.008Z,65.37
2023-03-12T01:54:44.252Z,65.37
2023-03-12T01:54:54.484Z,65.37
2023-03-12T01:55:04.723Z,65.47
2023-03-12T01:55:14.957Z,65.47
2023-03-12T01:55:25.194Z,65.47
2023-03-12T01:55:35.441Z,65.47
2023-03-12T01:55:45.669Z,65.47
2023-03-12T01:55:55.903Z,65.47
2023-03-12T01:56:06.141Z,65.47
2023-03-12T01:56:16.386Z,65.47
2023-03-12T01:56:26.616Z,65.37
2023-03-12T01:56:36.858Z,65.47
2023-03-12T01:56:47.089Z,65.37
2023-03-12T01:56:57.322Z,65.37
2023-03-12T01:57:07.573Z,65.47
2023-03-12T01:57:17.812Z,65.37
2023-03-12T01:57:28.048Z,65.37
2023-03-12T01:57:38.314Z,65.37
2023-03-12T01:57:48.536Z,65.37
2023-03-12T01:57:58.759Z,65.37
2023-03-12T01:58:09.001Z,65.37
2023-03-12T01:58:19.228Z,65.37
2023-03-12T01:58:29.484Z,65.37
2023-03-12T01:58:39.717Z,65.37
2023-03-12T01:58:49.967Z,65.37
2023-03-12T01:59:00.194Z,65.37
2023-03-12T01:59:10.465Z,65.47
2023-03-12T01:59:20.700Z,65.47
2023-03-12T01:59:30.961Z,65.58
2023-03-12T01:59:41.169Z,65.58
2023-03-12T01:59:51.407Z,65.58
2023-03-12T02:00:01.642Z,65.68
2023-03-12T02:00:11.906Z,65.68
2023-03-12T02:00:22.171Z,65.68
2023-03-12T02:00:32.362Z,65.58
2023-03-12T02:00:42.654Z,65.58
2023-03-12T02:00:52.913Z,65.58
2023-03-12T02:01:03.249Z,65.58
2023-03-12T02:01:13.555Z,65.58
2023-03-12T02:01:23.841Z,65.58
2023-03-12T02:01:34.088Z,65.58
2023-03-12T02:01:44.299Z,65.58
2023-03-12T02:01:54.531Z,65.58
2023-03-12T02:02:04.761Z,65.58
2023-03-12T02:02:15.008Z,65.58
2023-03-12T02:02:25.241Z,65.58
2023-03-12T02:02:35.482Z,65.58
2023-03-12T02:02:45.722Z,65.58
2023-03-12T02:02:55.952Z,65.68
2023-03-12T02:03:06.192Z,65.68
2023-03-12T02:03:16.423Z,65.68
2023-03-12T02:03:26.710Z,65.68
2023-03-12T02:03:36.972Z,65.68
2023-03-12T02:03:47.221Z,65.68
2023-03-12T02:03:57.502Z,65.68
2023-03-12T02:04:07.773Z,65.68
2023-03-12T02:04:18.143Z,65.68
2023-03-12T02:04:28.351Z,65.68
2023-03-12T02:04:38.585Z,65.68
2023-03-12T02:04:48.824Z,65.68
2023-03-12T02:04:59.077Z,65.68
2023-03-12T02:05:09.314Z,65.68
2023-03-12T02:05:19.557Z,65.68
2023-03-12T02:05:29.787Z,65.68
2023-03-12T02:05:40.016Z,65.58
2023-03-12T02:05:50.249Z,65.58
2023-03-12T02:06:00.489Z,65.58
2023-03-12T02:06:10.724Z,65.58
2023-03-12T02:06:20.962Z,65.58
2023-03-12T02:06:31.208Z,65.58
2023-03-12T02:06:41.436Z,65.58
2023-03-12T02:06:51.674Z,65.58
2023-03-12T02:07:01.913Z,65.58
2023-03-12T02:07:12.152Z,65.58
2023-03-12T02:07:22.383Z,65.58
2023-03-12T02:07:32.616Z,65.58
2023-03-12T02:07:42.855Z,65.58
2023-03-12T02:07:53.092Z,65.58
2023-03-12T02:08:03.356Z,65.58
2023-03-12T02:08:13.563Z,65.58
2023-03-12T02:08:23.798Z,65.68
2023-03-12T02:08:34.049Z,65.58
2023-03-12T02:08:44.304Z,65.68
2023-03-12T02:08:54.526Z,65.68
2023-03-12T02:09:04.769Z,65.68
2023-03-12T02:09:15.008Z,65.68
2023-03-12T02:09:25.237Z,65.58
2023-03-12T02:09:35.477Z,65.58
2023-03-12T02:09:45.709Z,65.58
2023-03-12T02:09:55.951Z,65.58
2023-03-12T02:10:06.187Z,65.58
2023-03-12T02:10:16.425Z,65.58
2023-03-12T02:10:26.687Z,65.58
2023-03-12T02:10:36.895Z,65.58
2023-03-12T02:10:47.131Z,65.58
2023-03-12T02:10:57.368Z,65.58
2023-03-12T02:11:07.610Z,65.58
2023-03-12T02:11:17.843Z,65.58
2023-03-12T02:11:28.096Z,65.58
2023-03-12T02:11:38.320Z,65.58
2023-03-12T02:11:48.561Z,65.58
2023-03-12T02:11:58.787Z,65.58
2023-03-12T02:12:09.031Z,65.58
2023-03-12T02:12:19.264Z,65.58
2023-03-12T02:12:29.504Z,65.58
2023-03-12T02:12:39.737Z,65.58
2023-03-12T02:12:49.970Z,65.47
2023-03-12T02:13:00.208Z,65.58
2023-03-12T02:13:10.444Z,65.58
2023-03-12T02:13:20.688Z,65.58
2023-03-12T02:13:30.978Z,65.58
2023-03-12T02:13:41.192Z,65.47
2023-03-12T02:13:51.430Z,65.58
2023-03-12T02:14:01.669Z,65.47
2023-03-12T02:14:11.905Z,65.47
2023-03-12T02:14:22.142Z,65.47